Latest Weather Observations for Paraburdoo

IDW60801

Issued at 7:32 am WST Sunday 14 February 2016 (issued every 30 minutes, with the page automatically refreshed every 10 minutes)

About weather observations | Map of weather stations | Latest weather observations for WA | Other Formats
Station Details ID: 007185 Name: PARABURDOO AERO Lat: -23.17 Lon: 117.75 Height: 423.7 m
Data from the previous 72 hours. | See also: Recent months at Paraburdoo
Date/Time
WST
Temp
°C
App
Temp
°C
Dew
Point
Rel
Hum
%
Delta-T
°C
Wind Press
QNH
hPa
Press
MSL
hPa
Rain
since 9 am
mm
Dir
 
Spd
km/h
Gust
km/h
Spd
kts
Gust
kts
14/07:30am 31.6 30.7 13.8 34 10.9 NNE 11 15 6 8 1011.9 1008.2 0.0
14/07:00am 29.9 29.7 13.6 36 9.9 SE 7 15 4 8 1011.9 1008.2 0.0
14/06:30am 27.8 26.8 13.3 40 8.7 ESE 11 15 6 8 1011.4 1007.7 0.0
14/06:00am 24.8 23.5 14.9 54 6.0 ESE 15 26 8 14 1011.2 1007.5 0.0
14/05:30am 24.7 24.4 14.5 53 6.2 NE 9 13 5 7 1010.1 1006.5 0.0
14/05:00am 25.4 25.0 14.2 50 6.8 ENE 9 11 5 6 1009.7 1006.0 0.0
14/04:30am 25.9 25.6 14.4 49 7.0 ENE 9 11 5 6 1009.5 1005.8 0.0
14/04:00am 26.9 27.1 14.3 46 7.7 ESE 6 7 3 4 1009.3 1005.6 0.0
14/03:30am 27.2 27.5 14.6 46 7.7 SE 6 11 3 6 1009.1 1005.4 0.0
14/03:00am 27.2 26.7 13.9 44 8.1 ESE 9 11 5 6 1009.0 1005.3 0.0
14/02:30am 28.8 28.6 13.5 39 9.3 NE 7 7 4 4 1008.9 1005.2 0.0
14/02:00am 29.7 29.8 13.9 38 9.7 SE 6 7 3 4 1009.0 1005.3 0.0
14/01:30am 30.6 31.4 13.8 35 10.3 WSW 2 9 1 5 1009.0 1005.3 0.0
14/01:00am 30.3 31.1 13.6 36 10.2 SE 2 9 1 5 1009.1 1005.4 0.0
14/12:30am 31.7 31.3 13.0 32 11.4 NNE 7 11 4 6 1009.2 1005.5 0.0
14/12:00am 31.7 30.5 11.5 29 12.0 ENE 9 11 5 6 1009.6 1005.9 0.0
 
Date/Time
WST
Temp
°C
App
Temp
°C
Dew
Point
Rel
Hum
%
Delta-T
°C
Wind Press
QNH
hPa
Press
MSL
hPa
Rain
since 9 am
mm
Dir
 
Spd
km/h
Gust
km/h
Spd
kts
Gust
kts
13/11:30pm 32.8 31.8 10.2 25 13.2 ENE 6 9 3 5 1009.9 1006.3 0.0
13/11:00pm 32.7 29.9 6.8 20 14.4 ENE 11 13 6 7 1010.1 1006.5 0.0
13/10:30pm 33.3 29.0 1.2 13 16.3 NE 13 17 7 9 1010.1 1006.5 0.0
13/10:00pm 33.9 28.8 0.5 12 16.9 NE 17 19 9 10 1009.9 1006.3 0.0
13/09:30pm 34.3 30.5 -0.4 11 17.3 E 9 11 5 6 1009.9 1006.3 0.0
13/09:00pm 34.4 30.3 -0.3 11 17.3 E 11 13 6 7 1009.7 1006.0 0.0
13/08:30pm 35.7 31.2 -0.6 10 18.2 E 13 15 7 8 1009.5 1005.8 0.0
13/08:00pm 36.8 32.2 -1.2 9 19.0 E 13 17 7 9 1009.2 1005.5 0.0
13/07:30pm 37.2 32.8 0.5 10 18.9 ESE 13 15 7 8 1008.9 1005.2 0.0
13/07:00pm 39.0 34.6 0.4 9 20.1 ESE 13 17 7 9 1008.4 1004.8 0.0
13/06:30pm 40.5 36.4 -0.1 8 21.1 SE 11 15 6 8 1008.1 1004.5 0.0
13/06:00pm 42.1 37.2 -0.8 7 22.3 SE 15 20 8 11 1007.8 1004.2 0.0
13/05:30pm 42.6 38.8 -0.4 7 22.5 ENE 9 13 5 7 1007.6 1003.9 0.0
13/05:00pm 43.1 39.0 -0.1 7 22.8 NNW 11 20 6 11 1007.5 1003.8 0.0
13/04:30pm 43.3 39.5 1.9 8 22.5 NNW 11 20 6 11 1007.5 1003.8 0.0
13/04:00pm 43.3 40.0 0.1 7 22.9 SW 7 13 4 7 1007.8 1004.2 0.0
13/03:30pm 43.2 39.6 -2.1 6 23.2 S 7 13 4 7 1008.0 1004.4 0.0
13/03:00pm 43.7 39.7 0.4 7 23.1 NNE 11 24 6 13 1008.2 1004.6 0.0
13/02:30pm 43.7 39.8 -1.7 6 23.4 W 9 13 5 7 1008.5 1004.9 0.0
13/02:00pm 43.6 38.9 -1.8 6 23.4 SE 13 22 7 12 1009.0 1005.3 0.0
13/01:30pm 42.4 37.2 -2.7 6 22.8 SSE 15 24 8 13 1009.3 1005.6 0.0
13/01:00pm 41.8 37.2 -1.0 7 22.1 NE 13 28 7 15 1009.5 1005.8 0.0
13/12:30pm 42.3 37.5 -2.7 6 22.7 E 13 20 7 11 1009.8 1006.1 0.0
13/12:00pm 41.7 37.5 -1.1 7 22.1 NNE 11 20 6 11 1010.2 1006.6 0.0
13/11:30am 41.6 37.8 -1.1 7 22.0 E 9 15 5 8 1010.5 1006.9 0.0
13/11:00am 41.5 36.1 -1.2 7 22.0 NNE 17 24 9 13 1010.7 1007.1 0.0
13/10:30am 40.4 36.7 -0.2 8 21.0 N 9 17 5 9 1011.0 1007.4 0.0
13/10:00am 40.4 36.8 2.9 10 20.4 E 11 15 6 8 1011.4 1007.7 0.0
13/09:30am 39.4 35.1 3.5 11 19.5 ENE 15 19 8 10 1011.6 1007.9 0.0
13/09:00am 38.0 34.0 4.8 13 18.3 NE 15 20 8 11 1011.6 1007.9 0.0
13/08:30am 36.1 32.8 6.3 16 16.7 ENE 13 17 7 9 1011.7 1008.0 0.0
13/08:00am 34.2 29.6 5.7 17 15.7 NE 19 22 10 12 1011.6 1007.9 0.0
13/07:30am 32.0 27.4 5.5 19 14.3 NE 19 24 10 13 1011.5 1007.8 0.0
13/07:00am 30.5 27.1 5.7 21 13.4 NE 13 17 7 9 1011.3 1007.6 0.0
13/06:30am 28.1 24.0 6.2 25 11.7 NE 17 20 9 11 1010.9 1007.3 0.0
13/06:00am 26.8 23.4 5.7 26 11.1 ENE 13 17 7 9 1010.6 1007.0 0.0
13/05:30am 26.5 23.0 5.5 26 11.0 E 13 15 7 8 1010.3 1006.7 0.0
13/05:00am 28.8 24.3 4.3 21 12.8 NE 17 20 9 11 1010.0 1006.4 0.0
13/04:30am 29.1 24.2 3.9 20 13.1 ENE 19 20 10 11 1009.8 1006.1 0.0
13/04:00am 27.8 23.2 5.4 24 11.8 NE 19 20 10 11 1009.7 1006.0 0.0
13/03:30am 27.2 23.6 4.9 24 11.6 ENE 13 15 7 8 1009.8 1006.1 0.0
13/03:00am 28.3 25.8 3.9 21 12.6 NE 6 15 3 8 1009.8 1006.1 0.0
13/02:30am 27.8 24.5 4.8 23 12.0 NE 11 13 6 7 1009.7 1006.0 0.0
13/02:00am 27.6 23.8 4.0 22 12.2 ENE 13 15 7 8 1009.7 1006.0 0.0
13/01:30am 28.1 24.0 4.4 22 12.3 ENE 15 19 8 10 1009.8 1006.1 0.0
13/01:00am 28.2 24.5 4.5 22 12.4 E 13 20 7 11 1010.1 1006.5 0.0
13/12:30am 28.0 24.2 5.6 24 11.9 NE 15 19 8 10 1010.3 1006.7 0.0
13/12:00am 28.8 27.5 6.2 24 12.2 ESE 2 7 1 4 1010.4 1006.8 0.0
 
Date/Time
WST
Temp
°C
App
Temp
°C
Dew
Point
Rel
Hum
%
Delta-T
°C
Wind Press
QNH
hPa
Press
MSL
hPa
Rain
since 9 am
mm
Dir
 
Spd
km/h
Gust
km/h
Spd
kts
Gust
kts
12/11:30pm 29.3 26.8 6.7 24 12.3 SE 9 15 5 8 1010.6 1007.0 0.0
12/11:00pm 29.4 27.1 5.5 22 12.8 SE 7 9 4 5 1010.6 1007.0 0.0
12/10:30pm 30.4 26.8 4.9 20 13.5 NE 13 17 7 9 1010.6 1007.0 0.0
12/10:00pm 30.7 28.0 3.7 18 14.1 E 7 9 4 5 1010.6 1007.0 0.0
12/09:30pm 31.9 29.0 4.6 18 14.5 NE 9 11 5 6 1010.6 1007.0 0.0
12/09:00pm 31.9 29.5 5.4 19 14.3 ESE 7 9 4 5 1010.4 1006.8 0.0
12/08:30pm 33.8 31.1 3.6 15 16.0 ENE 7 9 4 5 1010.2 1006.6 0.0
12/08:00pm 34.3 30.3 3.0 14 16.5 ENE 13 17 7 9 1010.0 1006.4 0.0
12/07:30pm 36.6 33.1 1.4 11 18.3 ESE 9 9 5 5 1009.8 1006.1 0.0
12/07:00pm 38.7 34.3 0.2 9 19.9 SSE 13 15 7 8 1009.5 1005.8 0.0
12/06:30pm 40.3 36.2 -0.3 8 21.0 SE 11 15 6 8 1009.3 1005.6 0.0
12/06:00pm 41.6 37.9 -3.2 6 22.4 SE 7 13 4 7 1009.1 1005.4 0.0
12/05:30pm 42.2 37.0 -2.8 6 22.7 SSE 15 24 8 13 1008.9 1005.2 0.0
12/05:00pm 42.0 36.4 -2.9 6 22.6 ESE 17 26 9 14 1008.8 1005.1 0.0
12/04:30pm 42.9 39.3 -2.3 6 23.0 S 7 17 4 9 1008.7 1005.0 0.0
12/04:00pm 42.5 38.0 -0.5 7 22.5 ESE 13 20 7 11 1008.8 1005.1 0.0
12/03:30pm 42.2 38.0 -0.7 7 22.3 NNE 11 17 6 9 1008.9 1005.2 0.0
12/03:00pm 42.4 37.1 -0.6 7 22.4 E 17 28 9 15 1009.2 1005.5 0.0
12/02:30pm 42.2 38.0 -0.7 7 22.3 ESE 11 24 6 13 1009.5 1005.8 0.0
12/02:00pm 42.4 36.5 -0.6 7 22.4 ESE 20 30 11 16 1010.0 1006.4 0.0
12/01:30pm 42.1 38.7 -0.8 7 22.2 SE 7 17 4 9 1010.2 1006.6 0.0
12/01:00pm 42.2 36.3 -0.7 7 22.3 ESE 20 30 11 16 1010.8 1007.2 0.0
12/12:30pm 41.5 36.6 2.3 9 21.2 NE 17 24 9 13 1011.3 1007.6 0.0
12/12:00pm 40.6 35.8 0.0 8 21.1 NNE 15 22 8 12 1011.7 1008.0 0.0
12/11:30am 40.0 35.0 1.1 9 20.5 NE 17 35 9 19 1012.1 1008.5 0.0
12/11:00am 40.4 36.0 2.9 10 20.4 E 15 22 8 12 1012.4 1008.8 0.0
12/10:30am 39.6 35.4 3.7 11 19.6 E 15 22 8 12 1012.7 1009.1 0.0
12/10:00am 39.0 35.3 4.4 12 19.1 E 13 22 7 12 1013.1 1009.5 0.0
12/09:30am 37.7 34.2 3.4 12 18.5 E 11 20 6 11 1013.4 1009.8 0.0
12/09:00am 35.7 33.3 6.9 17 16.2 SSW 9 13 5 7 1013.3 1009.7 0.0
12/08:30am 35.1 33.7 8.8 20 15.2 SSW 6 9 3 5 1013.2 1009.6 0.0
12/08:00am 32.9 32.5 8.4 22 13.9 CALM 0 6 0 3 1013.0 1009.4 0.0
12/07:30am 30.7 30.1 9.0 26 12.3 SSE 2 6 1 3 1012.9 1009.3 0.0
12/07:00am 29.3 26.6 8.9 28 11.5 NE 13 15 7 8 1012.7 1009.1 0.0
12/06:30am 26.7 23.8 8.2 31 10.2 NE 13 13 7 7 1012.4 1008.8 0.0
12/06:00am 25.9 23.2 7.5 31 10.0 NE 11 11 6 6 1012.2 1008.6 0.0
12/05:30am 25.5 23.2 7.6 32 9.7 NE 9 13 5 7 1012.0 1008.3 0.0
12/05:00am 25.6 23.2 7.2 31 9.9 ENE 9 11 5 6 1011.7 1008.0 0.0
12/04:30am 26.4 24.0 6.9 29 10.5 E 9 11 5 6 1011.4 1007.7 0.0
12/04:00am 26.2 24.2 7.3 30 10.2 E 7 11 4 6 1011.2 1007.5 0.0
12/03:30am 27.5 24.7 6.8 27 11.2 NNE 11 15 6 8 1010.9 1007.3 0.0
12/03:00am 28.0 25.4 6.2 25 11.7 ENE 9 13 5 7 1011.2 1007.5 0.0
12/02:30am 28.1 25.3 6.8 26 11.5 NNE 11 15 6 8 1011.0 1007.4 0.0
12/02:00am 29.3 25.5 6.0 23 12.5 NE 15 19 8 10 1011.2 1007.5 0.0
12/01:30am 30.3 26.5 5.6 21 13.3 ENE 15 17 8 9 1011.3 1007.6 0.0
12/01:00am 32.3 28.3 5.0 18 14.7 E 15 20 8 11 1011.5 1007.8 0.0
12/12:30am 30.9 27.4 5.3 20 13.7 NE 13 19 7 10 1011.7 1008.0 0.0
12/12:00am 30.4 27.1 6.3 22 13.1 NNE 13 17 7 9 1011.7 1008.0 0.0
 
Date/Time
WST
Temp
°C
App
Temp
°C
Dew
Point
Rel
Hum
%
Delta-T
°C
Wind Press
QNH
hPa
Press
MSL
hPa
Rain
since 9 am
mm
Dir
 
Spd
km/h
Gust
km/h
Spd
kts
Gust
kts
11/11:30pm 30.2 26.8 6.1 22 13.0 NE 13 15 7 8 1012.0 1008.3 0.0
11/11:00pm 32.0 29.1 4.7 18 14.6 ENE 9 9 5 5 1012.3 1008.7 0.0
11/10:30pm 32.1 28.8 4.8 18 14.6 ENE 11 15 6 8 1012.6 1009.0 0.0
11/10:00pm 32.7 29.4 4.5 17 15.1 E 11 17 6 9 1012.5 1008.9 0.0
11/09:30pm 34.0 30.2 3.7 15 16.1 ESE 13 15 7 8 1012.5 1008.9 0.0
11/09:00pm 33.6 29.9 4.3 16 15.7 ESE 13 15 7 8 1012.3 1008.7 0.0
11/08:30pm 34.0 30.3 4.6 16 15.8 E 13 15 7 8 1012.0 1008.3 0.0
11/08:00pm 35.1 31.6 3.6 14 16.8 ESE 11 15 6 8 1011.8 1008.1 0.0
11/07:30pm 36.4 32.5 3.6 13 17.6 ESE 13 15 7 8 1011.4 1007.7 0.0
11/07:00pm 38.0 33.9 2.5 11 18.9 ESE 13 17 7 9 1011.2 1007.5 0.0
11/06:30pm 39.6 35.5 2.3 10 20.0 SE 13 19 7 10 1010.7 1007.1 0.0
11/06:00pm 40.9 37.1 1.8 9 20.9 SE 11 19 6 10 1010.3 1006.7 0.0
11/05:30pm 41.5 37.1 0.6 8 21.6 SSE 13 19 7 10 1010.1 1006.5 0.0
11/05:00pm 41.8 38.1 2.5 9 21.4 ENE 11 19 6 10 1010.0 1006.4 0.0
11/04:30pm 41.4 36.9 2.2 9 21.2 ENE 15 26 8 14 1009.8 1006.1 0.0
11/04:00pm 42.2 37.4 2.8 9 21.6 ESE 17 28 9 15 1009.9 1006.3 0.0
11/03:30pm 42.0 37.3 1.0 8 21.8 ENE 15 22 8 12 1009.9 1006.3 0.0
11/03:00pm 42.0 36.9 1.0 8 21.8 SE 17 28 9 15 1010.1 1006.5 0.0
11/02:30pm 41.9 36.3 0.9 8 21.8 NE 20 33 11 18 1010.3 1006.7 0.0
11/02:00pm 41.3 36.2 0.5 8 21.5 SE 17 33 9 18 1010.7 1007.1 0.0
11/01:30pm 42.0 36.8 2.6 9 21.5 E 19 26 10 14 1011.0 1007.4 0.0
11/01:00pm 42.2 38.2 2.8 9 21.6 ENE 13 24 7 13 1011.5 1007.8 0.0
11/12:30pm 41.0 36.8 1.9 9 21.0 NE 13 32 7 17 1011.9 1008.2 0.0
11/12:00pm 40.1 35.1 1.2 9 20.6 NE 17 30 9 16 1012.1 1008.5 0.0
11/11:38am 40.8 35.7 3.2 10 20.5 N 19 41 10 22 1012.3 1008.7 0.0
11/11:30am 40.0 35.0 1.1 9 20.5 N 17 28 9 15 1012.3 1008.7 0.0
11/11:00am 40.2 34.5 2.8 10 20.2 ENE 22 35 12 19 1012.8 1009.2 0.0
11/10:30am 39.8 34.6 3.8 11 19.7 E 20 33 11 18 1013.1 1009.5 0.0
11/10:00am 39.1 33.3 4.5 12 19.1 ENE 24 33 13 18 1013.6 1009.9 0.0
11/09:30am 38.6 32.6 5.3 13 18.6 ENE 26 35 14 19 1013.7 1010.0 0.0
11/09:00am 37.0 31.0 5.1 14 17.6 ENE 26 33 14 18 1013.9 1010.2 0.0
11/08:30am 36.0 31.5 6.2 16 16.6 ENE 19 24 10 13 1014.1 1010.4 0.0
11/08:00am 34.5 32.4 8.3 20 15.0 E 9 11 5 6 1013.9 1010.2 0.0

Other Formats:

Comma delimited format used in spreadsheet applications
http://www.bom.gov.au/fwo/IDW60801/IDW60801.94316.axf

JavaScript Object Notation format (JSON) in row-major order
http://www.bom.gov.au/fwo/IDW60801/IDW60801.94316.json